Time;durP1;ratioP1;P1;durP2;ratioP2;P2;SDS_P1;SDS_P2;PMS_P1;PMS_P2;Temp;Humidity;BMP_temperature;BMP_pressure;BME280_temperature;BME280_humidity;BME280_pressure;Samples;Min_cycle;Max_cycle;Signal;HPM_P1;HPM_P2
2021/05/14 00:02:11;;;;;;;2.30;1.27;;;;;;;12.12;89.84;96914.72;5030776;28;20038;-81
2021/05/14 00:04:37;;;;;;;1.15;1.05;;;;;;;12.18;89.08;96907.91;5031359;28;20030;-82
2021/05/14 00:07:02;;;;;;;4.70;1.30;;;;;;;12.25;89.53;96936.38;5015084;28;20056;-84
2021/05/14 00:09:28;;;;;;;5.50;1.30;;;;;;;12.24;89.56;96918.34;5016877;28;20029;-83
2021/05/14 00:11:53;;;;;;;2.15;1.17;;;;;;;12.25;89.89;96924.63;5013924;28;20029;-84
2021/05/14 00:14:19;;;;;;;3.17;2.15;;;;;;;12.23;89.99;96918.66;5007084;28;20461;-82
2021/05/14 00:16:44;;;;;;;1.00;1.00;;;;;;;12.27;90.33;96923.16;5023617;28;20467;-81
2021/05/14 00:19:09;;;;;;;2.53;1.25;;;;;;;12.20;90.64;96922.88;5008823;28;20087;-85
2021/05/14 00:21:35;;;;;;;1.30;1.15;;;;;;;12.11;90.60;96921.31;5023259;28;20139;-82
2021/05/14 00:24:01;;;;;;;1.88;1.30;;;;;;;12.01;91.41;96924.41;5007993;28;20379;-84
2021/05/14 00:26:26;;;;;;;1.67;1.00;;;;;;;11.96;91.85;96927.38;4994058;28;20116;-84
2021/05/14 00:28:52;;;;;;;2.30;1.10;;;;;;;11.91;92.83;96919.31;4993978;28;20030;-83
2021/05/14 00:31:17;;;;;;;3.97;1.15;;;;;;;11.98;92.53;96922.34;4993790;28;20022;-83
2021/05/14 00:33:43;;;;;;;3.20;1.40;;;;;;;11.95;93.08;96917.53;5012280;28;20021;-83
2021/05/14 00:36:08;;;;;;;1.88;1.00;;;;;;;11.95;93.00;96921.06;5012096;28;20030;-83
2021/05/14 00:38:35;;;;;;;2.63;1.88;;;;;;;12.09;92.43;96927.13;5012041;28;20073;-86
2021/05/14 00:41:01;;;;;;;3.50;1.30;;;;;;;11.99;91.89;96927.50;4993899;28;20034;-84
2021/05/14 00:43:27;;;;;;;2.28;1.23;;;;;;;11.95;92.58;96925.75;5011608;28;20030;-83
2021/05/14 00:45:52;;;;;;;3.17;1.40;;;;;;;11.97;92.72;96924.28;4993645;28;20053;-82
2021/05/14 00:48:18;;;;;;;1.77;1.40;;;;;;;12.00;92.65;96931.84;4993831;28;20030;-83
2021/05/14 00:50:43;;;;;;;1.83;1.55;;;;;;;11.87;93.55;96919.19;4998683;28;20935;-81
2021/05/14 00:53:09;;;;;;;3.10;1.35;;;;;;;11.91;93.45;96924.78;4999961;28;20034;-84
2021/05/14 00:55:34;;;;;;;1.85;1.00;;;;;;;11.91;92.82;96927.53;5021978;28;20056;-82
2021/05/14 00:57:59;;;;;;;2.08;1.48;;;;;;;11.80;94.11;96925.16;5022549;28;20093;-81
2021/05/14 01:00:26;;;;;;;3.45;1.60;;;;;;;11.89;93.82;96927.06;5004649;28;20026;-85
2021/05/14 01:02:52;;;;;;;2.50;1.33;;;;;;;11.89;93.93;96916.09;5011415;28;20131;-82
2021/05/14 01:05:19;;;;;;;3.78;1.50;;;;;;;11.94;93.24;96924.94;4994041;28;20026;-83
2021/05/14 01:07:45;;;;;;;3.60;1.20;;;;;;;11.82;93.64;96916.59;4994179;28;20460;-85
2021/05/14 01:10:11;;;;;;;1.73;1.13;;;;;;;11.84;94.43;96924.50;5011141;28;20030;-82
2021/05/14 01:12:36;;;;;;;1.58;1.27;;;;;;;11.85;94.36;96917.88;4993813;28;20483;-81
2021/05/14 01:15:02;;;;;;;4.78;1.52;;;;;;;11.97;94.55;96918.78;4995916;28;20091;-82
2021/05/14 01:17:30;;;;;;;1.63;1.35;;;;;;;11.93;94.05;96917.06;5014719;28;20066;-83
2021/05/14 01:19:56;;;;;;;1.10;0.93;;;;;;;11.85;94.48;96915.13;4997095;28;20025;-85
2021/05/14 01:22:22;;;;;;;6.97;1.33;;;;;;;11.85;94.65;96918.69;4997059;28;20022;-82
2021/05/14 01:24:47;;;;;;;1.35;1.20;;;;;;;12.00;94.00;96918.13;5014395;28;20114;-83
2021/05/14 01:27:12;;;;;;;1.33;1.23;;;;;;;11.97;93.68;96927.00;5015522;28;20109;-83
2021/05/14 01:29:38;;;;;;;2.92;1.75;;;;;;;12.07;94.22;96923.09;4997868;28;20029;-84
2021/05/14 01:32:04;;;;;;;2.22;1.98;;;;;;;12.09;93.32;96926.34;5003288;28;20382;-84
2021/05/14 01:34:29;;;;;;;1.30;1.20;;;;;;;12.01;94.30;96933.44;5032062;28;20056;-84
2021/05/14 01:36:55;;;;;;;3.55;1.33;;;;;;;12.06;94.32;96921.50;5023177;28;20018;-84
2021/05/14 01:39:24;;;;;;;3.28;1.83;;;;;;;11.93;94.27;96928.03;5015713;28;20113;-86
2021/05/14 01:41:50;;;;;;;2.25;2.05;;;;;;;11.94;94.71;96943.31;5015863;28;20037;-84
2021/05/14 01:44:16;;;;;;;1.90;1.42;;;;;;;11.93;95.46;96931.56;4999428;28;20026;-85
2021/05/14 01:46:41;;;;;;;5.82;2.30;;;;;;;11.73;96.22;96915.84;5015001;28;20394;-85
2021/05/14 01:49:07;;;;;;;3.10;1.52;;;;;;;11.92;96.97;96929.16;5014510;28;20026;-85
2021/05/14 01:51:33;;;;;;;2.13;1.60;;;;;;;11.94;96.47;96935.91;5014863;28;20034;-84
2021/05/14 01:53:59;;;;;;;3.28;1.92;;;;;;;11.90;96.48;96934.16;4997711;28;20447;-85
2021/05/14 01:56:24;;;;;;;3.28;1.75;;;;;;;11.92;96.50;96938.16;4997911;28;20068;-86
2021/05/14 01:58:51;;;;;;;4.13;2.47;;;;;;;11.87;96.66;96934.81;4998015;28;20068;-84
2021/05/14 02:01:17;;;;;;;2.50;1.77;;;;;;;11.91;96.83;96933.00;4997148;28;20502;-83
2021/05/14 02:03:43;;;;;;;1.85;1.50;;;;;;;11.86;97.11;96934.00;5015420;28;20044;-85
2021/05/14 02:06:08;;;;;;;2.75;2.03;;;;;;;11.86;97.84;96938.69;5014848;28;20112;-84
2021/05/14 02:08:35;;;;;;;1.85;1.60;;;;;;;11.84;97.67;96941.72;5017410;28;20030;-84
2021/05/14 02:11:03;;;;;;;3.05;1.80;;;;;;;11.73;98.70;96940.50;5025563;28;20017;-86
2021/05/14 02:13:28;;;;;;;4.90;1.75;;;;;;;11.77;98.58;96945.00;5007147;28;20487;-85
2021/05/14 02:15:54;;;;;;;2.47;1.50;;;;;;;11.74;98.18;96947.59;5006395;28;20033;-83
2021/05/14 02:18:19;;;;;;;3.28;1.85;;;;;;;11.79;97.46;96931.78;5022852;28;20022;-84
2021/05/14 02:20:44;;;;;;;3.38;1.50;;;;;;;11.78;97.27;96932.91;4997242;28;20033;-85
2021/05/14 02:23:13;;;;;;;1.40;1.30;;;;;;;11.86;97.51;96944.97;5015088;28;20022;-83
2021/05/14 02:25:39;;;;;;;2.53;1.98;;;;;;;11.74;97.84;96942.13;5021954;28;20133;-86
2021/05/14 02:28:07;;;;;;;4.45;1.60;;;;;;;11.70;98.15;96944.69;5021977;28;20410;-83
2021/05/14 02:30:32;;;;;;;4.50;1.85;;;;;;;11.62;98.17;96934.53;5015262;28;20077;-86
2021/05/14 02:32:58;;;;;;;4.10;1.45;;;;;;;11.58;98.71;96928.13;5000079;28;20440;-82
2021/05/14 02:35:23;;;;;;;6.43;1.90;;;;;;;11.64;98.79;96926.81;5026434;28;20109;-83
2021/05/14 02:37:49;;;;;;;1.85;1.58;;;;;;;11.62;98.56;96937.28;5003531;28;20117;-81
2021/05/14 02:40:15;;;;;;;3.13;1.52;;;;;;;11.63;98.11;96941.63;5014431;28;20103;-83
2021/05/14 02:42:41;;;;;;;2.58;1.90;;;;;;;11.73;98.81;96940.50;5014154;28;20096;-83
2021/05/14 02:45:08;;;;;;;2.28;1.73;;;;;;;11.81;98.43;96932.25;5004872;28;20109;-85
2021/05/14 02:47:34;;;;;;;3.15;2.08;;;;;;;11.78;98.27;96946.59;5023653;28;20111;-85
2021/05/14 02:49:59;;;;;;;4.43;1.95;;;;;;;11.68;98.48;96933.22;5012398;28;20041;-83
2021/05/14 02:52:25;;;;;;;2.00;1.85;;;;;;;11.75;99.52;96939.03;5016539;28;20036;-84
2021/05/14 02:54:50;;;;;;;4.45;2.28;;;;;;;11.79;100.00;96944.66;5016675;28;20110;-83
2021/05/14 02:57:16;;;;;;;2.38;1.83;;;;;;;11.80;100.00;96941.63;5033446;28;20041;-84
2021/05/14 02:59:42;;;;;;;2.63;1.80;;;;;;;11.89;99.90;96946.25;5033792;28;20022;-84
2021/05/14 03:02:07;;;;;;;3.92;2.00;;;;;;;11.75;99.70;96950.00;5015771;28;20053;-84
2021/05/14 03:04:33;;;;;;;4.72;3.08;;;;;;;11.65;100.00;96924.88;5015833;28;20034;-81
2021/05/14 03:06:58;;;;;;;3.25;2.38;;;;;;;11.89;100.00;96949.78;5032758;28;20038;-83
2021/05/14 03:09:23;;;;;;;4.72;2.85;;;;;;;11.94;100.00;96949.59;5015604;28;20037;-85
2021/05/14 03:11:49;;;;;;;2.50;1.55;;;;;;;12.00;99.84;96961.19;5015438;28;20036;-82
2021/05/14 03:14:15;;;;;;;4.22;1.90;;;;;;;11.82;99.05;96955.78;5015132;28;20107;-82
2021/05/14 03:16:40;;;;;;;4.13;1.80;;;;;;;11.75;99.54;96950.00;5014645;28;20022;-85
2021/05/14 03:19:05;;;;;;;4.60;2.47;;;;;;;11.68;100.00;96955.13;5014806;28;20441;-81
2021/05/14 03:21:31;;;;;;;4.57;1.92;;;;;;;11.69;100.00;96951.28;5026408;28;20360;-81
2021/05/14 03:23:58;;;;;;;5.07;2.10;;;;;;;11.64;100.00;96948.72;5008128;28;20029;-81
2021/05/14 03:26:24;;;;;;;4.35;1.95;;;;;;;11.66;100.00;96951.13;5022914;28;20088;-83
2021/05/14 03:28:49;;;;;;;3.30;2.00;;;;;;;11.63;100.00;96963.53;5007460;28;20026;-83
2021/05/14 03:31:15;;;;;;;4.10;1.80;;;;;;;11.65;100.00;96960.50;5012164;28;20039;-82
2021/05/14 03:33:41;;;;;;;4.50;1.95;;;;;;;11.65;100.00;96964.00;5033052;28;20019;-86
2021/05/14 03:36:06;;;;;;;5.22;2.85;;;;;;;11.63;100.00;96960.78;5015826;28;20025;-85
2021/05/14 03:38:33;;;;;;;3.72;1.60;;;;;;;11.68;100.00;96965.31;5014518;28;20021;-83
2021/05/14 03:41:01;;;;;;;3.78;2.05;;;;;;;11.65;100.00;96969.47;5014950;28;20542;-83
2021/05/14 03:43:27;;;;;;;7.38;2.60;;;;;;;11.67;100.00;96964.50;5015134;28;20123;-85
2021/05/14 03:45:53;;;;;;;5.32;2.55;;;;;;;11.62;100.00;96958.41;5031962;28;20037;-83
2021/05/14 03:48:19;;;;;;;6.18;2.22;;;;;;;11.67;100.00;96969.97;5015144;28;20021;-83
2021/05/14 03:50:50;;;;;;;4.95;2.70;;;;;;;11.60;100.00;96964.19;5032378;28;20598;-85
2021/05/14 03:53:16;;;;;;;5.30;2.50;;;;;;;11.60;100.00;96957.91;5032831;28;20108;-82
2021/05/14 03:55:42;;;;;;;4.78;2.70;;;;;;;11.69;100.00;96975.94;5012653;28;20116;-85
2021/05/14 03:58:08;;;;;;;6.50;2.83;;;;;;;11.71;100.00;96970.97;5020722;28;20060;-85
2021/05/14 04:00:33;;;;;;;4.07;2.80;;;;;;;11.71;100.00;96973.72;5002934;28;20021;-85
2021/05/14 04:02:59;;;;;;;3.90;3.15;;;;;;;11.68;100.00;96968.81;5012818;28;20049;-82
2021/05/14 04:05:24;;;;;;;4.50;3.08;;;;;;;11.72;100.00;96983.53;5013379;28;20025;-84
2021/05/14 04:07:50;;;;;;;3.03;2.72;;;;;;;11.73;100.00;96978.84;4995553;28;20060;-85
2021/05/14 04:10:32;;;;;;;8.90;4.07;;;;;;;11.69;100.00;96994.28;4995962;28;20046;-85
2021/05/14 04:15:41;;;;;;;4.07;3.13;;;;;;;11.72;100.00;96994.47;5013528;28;20041;-83
2021/05/14 04:18:06;;;;;;;6.07;3.25;;;;;;;11.66;100.00;96992.22;5012629;28;20479;-86
2021/05/14 04:20:32;;;;;;;8.60;3.65;;;;;;;11.55;100.00;96985.47;5011673;28;20392;-84
2021/05/14 04:22:57;;;;;;;9.02;3.80;;;;;;;11.60;100.00;96988.84;4995184;28;20025;-84
2021/05/14 04:25:23;;;;;;;5.45;3.70;;;;;;;11.58;100.00;96995.78;5019140;28;20474;-82
2021/05/14 04:27:48;;;;;;;7.13;4.15;;;;;;;11.55;100.00;96994.50;4999851;28;20033;-86
2021/05/14 04:30:14;;;;;;;6.55;2.97;;;;;;;11.60;100.00;97002.53;5026303;28;20117;-88
2021/05/14 04:32:40;;;;;;;6.40;2.92;;;;;;;11.55;100.00;96974.53;5009775;28;20021;-86
2021/05/14 04:35:06;;;;;;;4.20;2.58;;;;;;;11.67;100.00;96991.91;5021038;28;20030;-81
2021/05/14 04:37:31;;;;;;;6.05;3.08;;;;;;;11.69;100.00;96986.06;5002866;28;20049;-86
2021/05/14 04:39:56;;;;;;;6.82;2.63;;;;;;;11.74;100.00;96983.22;5001174;28;20127;-85
2021/05/14 04:42:22;;;;;;;4.38;2.92;;;;;;;11.74;100.00;96986.75;5006831;28;20018;-85
2021/05/14 04:44:47;;;;;;;3.20;2.60;;;;;;;11.90;100.00;96989.78;5008794;28;20100;-83
2021/05/14 04:47:16;;;;;;;3.67;2.88;;;;;;;11.88;99.17;96997.50;5022256;28;20041;-88
2021/05/14 04:49:41;;;;;;;4.60;2.88;;;;;;;11.87;99.67;96995.91;5028655;28;20029;-85
2021/05/14 04:52:21;;;;;;;3.15;2.63;;;;;;;11.95;99.44;96997.81;5014055;28;20441;-83
2021/05/14 04:54:47;;;;;;;5.57;3.50;;;;;;;11.80;99.37;96996.41;5012597;28;20040;-75
2021/05/14 04:57:15;;;;;;;12.02;4.40;;;;;;;11.87;99.08;97000.59;5032026;28;20029;-83
2021/05/14 04:59:41;;;;;;;6.78;3.67;;;;;;;11.80;99.67;96992.84;5003138;28;20049;-86
2021/05/14 05:02:08;;;;;;;5.63;3.60;;;;;;;11.83;99.42;97003.16;5005240;28;20080;-86
2021/05/14 05:04:37;;;;;;;6.35;3.63;;;;;;;11.95;98.93;97007.97;5006031;28;20017;-89
2021/05/14 05:07:04;;;;;;;11.57;4.60;;;;;;;11.99;99.04;97003.44;5014356;28;20098;-86
2021/05/14 05:09:31;;;;;;;9.75;4.65;;;;;;;11.97;99.47;97003.75;5001293;28;20045;-87
2021/05/14 05:11:56;;;;;;;14.52;7.45;;;;;;;12.09;98.49;97014.06;5016342;28;20021;-87
2021/05/14 05:14:22;;;;;;;14.32;12.05;;;;;;;11.99;98.18;97011.66;5016497;28;20049;-87
2021/05/14 05:16:51;;;;;;;14.98;8.50;;;;;;;12.01;98.52;97017.59;5011951;28;20036;-86
2021/05/14 05:19:17;;;;;;;12.55;7.50;;;;;;;12.02;98.67;97013.75;5028203;28;20390;-87
2021/05/14 05:21:42;;;;;;;9.48;6.63;;;;;;;12.05;99.26;97022.13;5026558;28;20095;-85
2021/05/14 05:24:08;;;;;;;6.20;4.85;;;;;;;12.00;99.50;97005.03;5011453;28;20036;-84
2021/05/14 05:26:36;;;;;;;7.45;3.97;;;;;;;12.05;98.86;97013.09;5023867;28;20022;-88
2021/05/14 05:29:03;;;;;;;5.07;3.90;;;;;;;12.08;98.88;97029.69;5025828;28;20031;-82
2021/05/14 05:31:28;;;;;;;3.67;3.33;;;;;;;12.22;98.79;97034.94;5016388;28;20029;-80
2021/05/14 05:33:54;;;;;;;5.68;3.90;;;;;;;12.23;98.06;97020.09;5011659;28;20025;-80
2021/05/14 05:36:19;;;;;;;5.65;4.10;;;;;;;12.30;97.72;97023.16;5024321;28;20032;-82
2021/05/14 05:38:46;;;;;;;5.68;4.68;;;;;;;12.40;97.22;97024.72;5014211;28;20041;-85
2021/05/14 05:41:12;;;;;;;7.07;3.58;;;;;;;12.32;98.26;97037.31;4994034;28;20033;-78
2021/05/14 05:43:37;;;;;;;4.95;3.60;;;;;;;12.42;97.31;97036.16;5015853;28;20021;-82
2021/05/14 05:46:03;;;;;;;6.10;4.00;;;;;;;12.63;97.08;97039.75;5014532;28;20529;-85
2021/05/14 05:48:28;;;;;;;4.70;4.07;;;;;;;12.48;97.43;97027.41;5001341;28;20030;-87
2021/05/14 05:50:54;;;;;;;7.18;4.43;;;;;;;12.74;96.96;97039.06;4973544;28;20479;-85
2021/05/14 05:53:19;;;;;;;6.05;4.53;;;;;;;12.66;97.05;97039.09;4993299;28;20027;-85
2021/05/14 05:55:45;;;;;;;11.32;4.10;;;;;;;12.84;95.80;97041.41;5005967;28;20176;-86
2021/05/14 05:58:13;;;;;;;5.15;4.03;;;;;;;12.81;96.08;97035.81;4996816;28;20487;-85
2021/05/14 06:00:39;;;;;;;5.63;4.20;;;;;;;12.77;96.82;97052.13;5013299;28;20080;-82
2021/05/14 06:03:08;;;;;;;6.82;4.00;;;;;;;13.03;96.02;97048.41;5017531;28;20054;-87
2021/05/14 06:05:33;;;;;;;8.82;5.35;;;;;;;12.96;94.93;97045.41;5000546;28;20060;-84
2021/05/14 06:07:59;;;;;;;8.27;4.78;;;;;;;13.04;94.46;97045.31;4999872;28;20490;-89
2021/05/14 06:10:25;;;;;;;9.80;4.25;;;;;;;13.14;93.02;97052.41;4984573;28;20038;-87
2021/05/14 06:12:51;;;;;;;6.40;4.47;;;;;;;13.25;93.09;97056.38;4999394;28;20085;-84
2021/05/14 06:15:16;;;;;;;9.10;4.78;;;;;;;13.14;92.70;97064.19;4998349;28;20033;-83
2021/05/14 06:17:42;;;;;;;9.30;4.57;;;;;;;13.17;93.40;97059.97;4999934;28;20128;-86
2021/05/14 06:20:10;;;;;;;7.38;5.63;;;;;;;13.14;94.09;97061.44;5017483;28;20033;-85
2021/05/14 06:22:36;;;;;;;10.32;5.32;;;;;;;12.99;94.19;97070.25;4999850;28;20022;-85
2021/05/14 06:25:03;;;;;;;7.47;4.20;;;;;;;13.00;94.06;97071.06;5017952;28;20053;-86
2021/05/14 06:27:28;;;;;;;12.13;4.28;;;;;;;13.00;92.73;97068.31;5000749;28;20018;-87
2021/05/14 06:29:54;;;;;;;6.25;3.90;;;;;;;13.39;91.85;97073.38;5017191;28;20022;-86
2021/05/14 06:32:19;;;;;;;4.28;3.80;;;;;;;13.39;91.38;97076.13;5000110;28;20030;-89
2021/05/14 06:34:45;;;;;;;9.13;4.28;;;;;;;13.37;91.31;97081.94;5000511;28;20041;-87
2021/05/14 06:37:11;;;;;;;6.13;4.90;;;;;;;13.43;90.04;97085.31;5016885;28;20034;-85
2021/05/14 06:39:36;;;;;;;3.80;3.45;;;;;;;13.38;89.88;97091.00;5014514;28;20034;-87
2021/05/14 06:42:01;;;;;;;7.35;4.95;;;;;;;13.56;89.88;97088.94;5015906;28;20022;-87
2021/05/14 06:44:28;;;;;;;5.13;3.67;;;;;;;13.62;88.32;97084.84;4998913;28;20033;-84
2021/05/14 06:46:54;;;;;;;4.47;3.72;;;;;;;13.80;87.16;97089.84;4999079;28;20052;-86
2021/05/14 06:49:19;;;;;;;7.70;3.50;;;;;;;13.91;85.67;97071.78;5014999;28;20030;-83
2021/05/14 06:51:44;;;;;;;5.35;3.33;;;;;;;14.21;84.52;97085.41;4999436;28;20051;-86
2021/05/14 06:54:10;;;;;;;5.15;3.65;;;;;;;14.21;85.96;97088.16;5016695;28;20391;-85
2021/05/14 06:56:35;;;;;;;5.25;3.55;;;;;;;14.10;86.56;97082.25;5013616;28;20017;-86
2021/05/14 06:59:02;;;;;;;6.63;3.40;;;;;;;14.27;84.36;97089.53;5005420;28;20117;-85
2021/05/14 07:01:27;;;;;;;3.60;3.30;;;;;;;14.20;84.54;97095.59;5021090;28;20128;-87
2021/05/14 07:03:53;;;;;;;5.32;3.60;;;;;;;14.09;84.35;97080.69;5018977;28;20096;-85
2021/05/14 07:06:19;;;;;;;8.80;4.05;;;;;;;14.24;83.90;97092.97;5018289;28;20060;-86
2021/05/14 07:08:47;;;;;;;7.03;3.67;;;;;;;14.26;84.28;97107.19;5017945;28;20021;-84
2021/05/14 07:11:12;;;;;;;6.55;3.10;;;;;;;14.36;83.92;97112.28;5018055;28;20025;-86
2021/05/14 07:13:37;;;;;;;6.28;3.90;;;;;;;14.18;84.00;97102.59;5018454;28;20441;-85
2021/05/14 07:16:03;;;;;;;3.78;2.97;;;;;;;14.19;83.42;97098.69;5037797;28;20022;-84
2021/05/14 07:18:28;;;;;;;6.80;3.53;;;;;;;14.28;83.78;97110.41;5037226;28;20104;-84
2021/05/14 07:20:54;;;;;;;7.80;3.60;;;;;;;14.24;83.82;97112.22;5018167;28;20120;-83
2021/05/14 07:23:20;;;;;;;5.65;3.83;;;;;;;14.30;84.42;97113.63;5016931;28;20060;-86
2021/05/14 07:25:45;;;;;;;7.57;3.75;;;;;;;14.22;84.76;97111.78;5018590;28;20036;-84
2021/05/14 07:28:11;;;;;;;8.02;4.18;;;;;;;14.28;85.49;97115.91;5017751;28;20116;-85
2021/05/14 07:30:37;;;;;;;8.68;3.65;;;;;;;14.11;86.28;97110.56;5002030;28;20036;-85
2021/05/14 07:33:02;;;;;;;6.80;4.28;;;;;;;14.12;87.94;97114.94;5017738;28;20545;-85
2021/05/14 07:35:27;;;;;;;4.97;4.20;;;;;;;13.93;86.99;97113.50;5035074;28;20421;-87
2021/05/14 07:37:53;;;;;;;5.70;4.35;;;;;;;13.91;88.44;97128.69;5036066;28;20030;-85
2021/05/14 07:40:18;;;;;;;7.85;4.82;;;;;;;13.77;89.71;97107.00;5034833;28;20031;-85
2021/05/14 07:42:44;;;;;;;9.00;5.25;;;;;;;13.90;89.93;97125.19;5017461;28;20029;-86
2021/05/14 07:45:10;;;;;;;6.88;5.07;;;;;;;13.94;89.57;97120.59;5001375;28;20033;-85
2021/05/14 07:47:35;;;;;;;6.85;5.30;;;;;;;13.81;89.24;97118.16;5024284;28;20124;-87
2021/05/14 07:50:01;;;;;;;6.13;5.53;;;;;;;13.85;90.02;97119.06;4998206;28;20116;-85
2021/05/14 07:52:27;;;;;;;5.32;4.80;;;;;;;13.88;90.10;97123.88;4997023;28;20022;-87
2021/05/14 07:54:52;;;;;;;6.97;6.10;;;;;;;13.88;90.19;97112.88;4996754;28;20032;-86
2021/05/14 07:57:18;;;;;;;7.25;5.88;;;;;;;13.72;91.88;97122.91;5014272;28;20022;-88
2021/05/14 07:59:43;;;;;;;8.20;5.68;;;;;;;13.71;91.89;97113.84;4997157;28;20032;-86
2021/05/14 08:02:09;;;;;;;6.65;5.32;;;;;;;13.86;92.01;97120.69;5014241;28;20428;-85
2021/05/14 08:04:34;;;;;;;8.23;5.63;;;;;;;13.89;91.30;97117.25;4997151;28;20475;-85
2021/05/14 08:07:00;;;;;;;7.78;5.93;;;;;;;13.85;91.26;97130.84;5014289;28;20497;-85
2021/05/14 08:09:25;;;;;;;6.60;6.00;;;;;;;13.69;92.74;97121.63;4996569;28;20116;-87
2021/05/14 08:11:51;;;;;;;6.38;5.13;;;;;;;13.77;92.65;97130.94;5015007;28;20576;-88
2021/05/14 08:14:18;;;;;;;5.70;4.80;;;;;;;13.88;91.46;97135.69;4995782;28;20022;-87
2021/05/14 08:16:44;;;;;;;6.70;6.05;;;;;;;13.83;91.56;97122.16;4996701;28;20044;-85
2021/05/14 08:19:12;;;;;;;8.52;5.28;;;;;;;13.83;91.60;97126.84;4997000;28;20018;-87
2021/05/14 08:21:39;;;;;;;12.18;5.45;;;;;;;13.82;92.15;97133.47;4997149;28;20470;-86
2021/05/14 08:24:06;;;;;;;7.82;6.25;;;;;;;13.80;92.03;97139.31;5014436;28;20387;-89
2021/05/14 08:26:31;;;;;;;8.52;5.60;;;;;;;13.78;91.73;97130.59;4998471;28;20033;-85
2021/05/14 08:28:57;;;;;;;6.05;4.80;;;;;;;13.62;92.25;97121.38;5000233;28;20045;-87
2021/05/14 08:31:22;;;;;;;9.45;4.45;;;;;;;13.67;92.10;97150.56;5018645;28;20088;-86
2021/05/14 08:33:48;;;;;;;7.50;4.15;;;;;;;13.59;92.90;97138.53;5000621;28;20084;-86
2021/05/14 08:36:13;;;;;;;5.15;4.20;;;;;;;13.64;93.80;97151.25;4997525;28;20018;-84
2021/05/14 08:38:39;;;;;;;3.80;3.45;;;;;;;13.58;94.11;97153.41;4995073;28;20030;-84
2021/05/14 08:41:06;;;;;;;8.57;3.55;;;;;;;13.52;95.12;97154.75;4995571;28;20018;-85
2021/05/14 08:43:31;;;;;;;7.40;3.85;;;;;;;13.53;95.15;97150.06;5018405;28;20529;-84
2021/05/14 08:46:02;;;;;;;4.65;3.78;;;;;;;13.52;95.37;97159.44;5015143;28;20033;-83
2021/05/14 08:48:31;;;;;;;6.55;3.53;;;;;;;13.59;94.99;97155.00;5032579;28;20048;-86
2021/05/14 08:50:57;;;;;;;4.82;3.83;;;;;;;13.50;96.29;97162.50;5014852;28;20095;-86
2021/05/14 08:53:22;;;;;;;4.65;3.50;;;;;;;13.25;95.11;97155.25;5032788;28;20029;-87
2021/05/14 08:55:47;;;;;;;5.80;3.15;;;;;;;13.27;96.09;97163.94;5032773;28;20033;-85
2021/05/14 08:58:13;;;;;;;8.45;4.15;;;;;;;13.29;97.47;97169.91;5014927;28;20026;-84
2021/05/14 09:00:39;;;;;;;7.32;4.05;;;;;;;13.14;98.49;97170.47;5014529;28;20030;-86
2021/05/14 09:03:11;;;;;;;9.65;3.80;;;;;;;13.15;99.43;97161.09;5014828;28;20521;-86
2021/05/14 09:05:37;;;;;;;7.30;4.97;;;;;;;13.28;100.00;97171.06;5015104;28;20508;-84
2021/05/14 09:08:03;;;;;;;4.78;4.28;;;;;;;13.38;100.00;97170.66;5014635;28;20107;-85
2021/05/14 09:10:30;;;;;;;5.70;3.75;;;;;;;13.27;97.18;97172.19;5031804;28;20026;-84
2021/05/14 09:12:57;;;;;;;6.22;3.78;;;;;;;13.28;99.04;97177.34;5014180;28;20022;-85
2021/05/14 09:15:37;;;;;;;7.47;3.22;;;;;;;13.11;98.57;97182.13;5017851;28;20048;-86
2021/05/14 09:18:16;;;;;;;5.43;3.80;;;;;;;13.07;100.00;97178.38;5020536;28;20057;-83
2021/05/14 09:21:03;;;;;;;3.95;2.83;;;;;;;13.09;99.91;97178.91;5014085;28;20441;-82
2021/05/14 09:23:40;;;;;;;4.63;3.45;;;;;;;13.12;100.00;97178.25;5013374;28;20495;-83
2021/05/14 09:26:11;;;;;;;8.25;2.65;;;;;;;13.19;98.67;97186.75;5031271;28;20034;-84
2021/05/14 09:28:47;;;;;;;7.35;3.40;;;;;;;13.28;100.00;97191.06;5031417;28;20028;-85
2021/05/14 09:31:16;;;;;;;;;;;;;;;13.43;98.46;97191.66;5014419;28;20029;-84
2021/05/14 09:33:53;;;;;;;3.35;2.13;;;;;;;13.36;97.94;97194.91;5014443;28;20343;-82
2021/05/14 09:36:30;;;;;;;4.35;2.05;;;;;;;13.50;96.25;97189.97;4988674;28;20376;-85
2021/05/14 09:38:55;;;;;;;2.88;1.65;;;;;;;13.63;94.99;97190.84;4994769;28;20035;-84
2021/05/14 09:41:52;;;;;;;4.60;1.63;;;;;;;13.73;94.59;97194.03;4978709;28;20387;-84
2021/05/14 09:44:20;;;;;;;3.00;1.90;;;;;;;13.76;95.35;97193.34;4978066;28;20048;-86
2021/05/14 09:46:47;;;;;;;2.92;1.75;;;;;;;13.59;94.55;97201.72;4978100;28;20037;-85
2021/05/14 09:49:17;;;;;;;3.08;2.78;;;;;;;13.67;93.82;97195.38;4994936;28;20112;-86
2021/05/14 09:51:56;;;;;;;5.78;1.95;;;;;;;13.89;93.89;97197.78;4978585;28;20111;-83
2021/05/14 09:54:41;;;;;;;6.38;1.83;;;;;;;13.88;92.48;97193.41;4994534;28;20049;-86
2021/05/14 09:59:51;;;;;;;1.60;1.30;;;;;;;14.10;92.06;97191.47;5034699;28;20038;-84
2021/05/14 10:02:30;;;;;;;4.35;1.60;;;;;;;13.83;92.05;97185.38;5034418;28;20134;-83
2021/05/14 10:04:58;;;;;;;1.35;1.10;;;;;;;13.79;90.66;97191.88;5017079;28;20061;-84
2021/05/14 10:07:25;;;;;;;1.50;1.17;;;;;;;13.32;93.55;97191.22;5034200;28;20026;-85
2021/05/14 10:09:55;;;;;;;2.13;1.13;;;;;;;13.26;96.01;97178.81;5034411;28;20112;-82
2021/05/14 10:12:21;;;;;;;2.00;1.08;;;;;;;13.29;92.79;97189.13;5016511;28;20067;-82
2021/05/14 10:14:47;;;;;;;3.95;1.23;;;;;;;13.28;95.30;97188.31;5016497;28;20487;-84
2021/05/14 10:17:13;;;;;;;2.55;1.55;;;;;;;13.42;94.48;97190.84;5015820;28;20026;-83
2021/05/14 10:19:41;;;;;;;2.70;1.70;;;;;;;13.43;94.70;97192.47;5033997;28;20048;-84
2021/05/14 10:22:07;;;;;;;1.45;1.35;;;;;;;13.58;93.95;97193.81;4999980;28;20031;-82
2021/05/14 10:24:57;;;;;;;3.88;1.60;;;;;;;13.72;94.60;97191.63;5016201;28;20030;-82
2021/05/14 10:27:39;;;;;;;2.80;1.50;;;;;;;13.82;92.44;97182.97;5016084;28;20063;-84
2021/05/14 10:30:05;;;;;;;2.65;1.40;;;;;;;13.97;92.64;97176.06;5016565;28;20384;-84
2021/05/14 10:32:43;;;;;;;1.80;1.08;;;;;;;14.08;90.18;97185.50;5015691;28;20052;-83
2021/05/14 10:35:13;;;;;;;1.83;1.02;;;;;;;13.92;90.01;97185.31;4996500;28;20033;-84
2021/05/14 10:37:50;;;;;;;2.17;1.20;;;;;;;13.86;89.65;97184.72;5010174;28;20041;-82
2021/05/14 10:40:45;;;;;;;5.05;1.15;;;;;;;14.05;86.07;97177.94;4996609;28;20033;-83
2021/05/14 10:43:19;;;;;;;1.95;1.15;;;;;;;14.22;84.23;97183.28;5001432;28;20041;-84
2021/05/14 10:45:48;;;;;;;3.58;1.00;;;;;;;14.48;84.42;97175.59;4996823;28;20447;-84
2021/05/14 10:48:22;;;;;;;1.92;1.05;;;;;;;15.10;82.49;97171.81;4995925;28;20026;-83
2021/05/14 10:50:52;;;;;;;1.85;0.98;;;;;;;15.88;78.84;97170.38;5013906;28;20013;-83
2021/05/14 10:53:27;;;;;;;3.33;1.35;;;;;;;16.01;74.59;97169.19;4996412;28;20029;-85
2021/05/14 10:55:55;;;;;;;2.38;1.00;;;;;;;16.33;73.55;97183.91;4996224;28;20013;-84
2021/05/14 10:58:45;;;;;;;1.10;1.00;;;;;;;17.05;72.72;97174.44;4996707;28;20030;-84
2021/05/14 11:01:38;;;;;;;4.22;1.70;;;;;;;16.73;75.05;97170.03;4995541;28;20026;-82
2021/05/14 11:04:24;;;;;;;1.67;1.17;;;;;;;16.61;75.12;97175.63;5013875;28;20044;-83
2021/05/14 11:06:52;;;;;;;1.55;1.10;;;;;;;17.05;70.59;97177.19;4996900;28;20026;-82
2021/05/14 11:09:21;;;;;;;1.98;0.80;;;;;;;16.45;69.84;97172.81;5008675;28;20128;-85
2021/05/14 11:12:08;;;;;;;4.50;1.20;;;;;;;16.38;70.23;97174.56;5016702;28;20021;-84
2021/05/14 11:14:46;;;;;;;3.88;0.93;;;;;;;16.39;71.23;97181.69;5017393;28;20076;-85
2021/05/14 11:17:13;;;;;;;2.13;1.30;;;;;;;16.92;71.44;97170.13;5016484;28;20552;-83
2021/05/14 11:19:50;;;;;;;1.27;0.65;;;;;;;16.83;71.70;97169.50;5016348;28;20038;-86
2021/05/14 11:22:48;;;;;;;1.65;0.90;;;;;;;16.66;69.63;97158.81;5016431;28;20475;-88
2021/05/14 11:25:20;;;;;;;0.63;0.60;;;;;;;16.35;70.14;97169.75;4989812;28;20128;-86
2021/05/14 11:27:48;;;;;;;1.17;0.90;;;;;;;16.29;72.26;97171.94;5016790;28;20026;-84
2021/05/14 11:30:15;;;;;;;2.25;0.73;;;;;;;16.33;72.92;97174.81;5017025;28;20029;-84
2021/05/14 11:32:44;;;;;;;4.25;1.52;;;;;;;16.27;71.36;97178.97;5016625;28;20045;-84
2021/05/14 11:35:18;;;;;;;1.65;0.85;;;;;;;16.46;71.26;97173.59;5016662;28;20041;-85
2021/05/14 11:38:01;;;;;;;2.42;0.73;;;;;;;16.73;72.02;97174.78;5037059;28;20043;-88
2021/05/14 11:40:32;;;;;;;1.52;0.73;;;;;;;16.77;70.77;97164.59;5019006;28;20040;-85